Flight Track Log - Related Links

Times and Time Zones

All times are in EDT time to prevent confusion due to time zone crossing. See the CSC8825 flight status page for this flight to view local times or setup timezone preferences in your user account.

Time Position Orientation Groundspeed Altitude Reporting Facility
EDT Latitude Longitude Course Direction KTS MPH feet Rate Location/Type
Fri 12:50:00 AM 28.2952 120.9456 12° North  Level Estimated
Fri 12:51:00 AM 28.3909 120.9691 12° North  Level Estimated
Fri 12:52:00 AM 28.4866 120.9926 12° North  Level Estimated
Fri 12:53:00 AM 28.5823 121.0162 12° North  Level Estimated
Fri 12:54:00 AM 28.6781 121.0399 12° North  Level Estimated
Fri 12:55:00 AM 28.7738 121.0636 12° North  Level Estimated
Fri 12:56:00 AM 28.8695 121.0873 12° North  Level Estimated
Fri 12:57:00 AM 28.9652 121.1111 12° North  Level Estimated
Fri 12:58:00 AM 29.0609 121.1349 12° North  Level Estimated
Fri 12:59:00 AM 29.1566 121.1587 12° North  Level Estimated
Fri 01:00:00 AM 29.2523 121.1826 12° North  Level Estimated
Fri 01:01:00 AM 29.3480 121.2066 12° North  Level Estimated
Fri 01:02:00 AM 29.4436 121.2306 12° North  Level Estimated
Fri 01:03:00 AM 29.5393 121.2546 12° North  Level Estimated
Fri 01:04:00 AM 29.6350 121.2787 12° North  Level Estimated
Fri 01:05:00 AM 29.7307 121.3028 12° North  Level Estimated
Fri 01:06:00 AM 29.8263 121.3270 12° North  Level Estimated
Fri 01:07:00 AM 29.9220 121.3512 12° North  Level Estimated
Fri 01:08:00 AM 30.0176 121.3755 12° North  Level Estimated
Fri 01:09:00 AM 30.1133 121.3998 12° North  Level Estimated
Fri 01:10:00 AM 30.2089 121.4242 12° North  Level Estimated
Fri 01:11:00 AM 30.3046 121.4486 12° North  Level Estimated
Fri 01:12:00 AM 30.4002 121.4730 12° North  Level Estimated
Fri 01:13:00 AM 30.4959 121.4975 12° North  Level Estimated
Fri 01:14:00 AM 30.5915 121.5221 12° North  Level Estimated
Fri 01:15:00 AM 30.6871 121.5467 12° North  Level Estimated
Fri 01:16:00 AM 30.7827 121.5713 12° North  Level Estimated
Fri 01:17:00 AM 30.8783 121.5960 13° North  Level Estimated
Fri 01:18:00 AM 30.9739 121.6208 13° North  Level Estimated
Fri 01:19:00 AM 31.0696 121.6456 13° North  Level Estimated
Fri 01:20:00 AM 31.1652 121.6704 13° North  Level Estimated
Fri 01:21:00 AM 31.2608 121.6953 13° North  Level Estimated
Fri 01:22:00 AM 31.3563 121.7203 13° North  Level Estimated
Fri 01:23:00 AM 31.4519 121.7453 13° North  Level Estimated
Fri 01:24:00 AM 31.5475 121.7703 13° North  Level Estimated
Fri 01:25:00 AM 31.6431 121.7954 13° North  Level Estimated
Fri 01:26:00 AM 31.7387 121.8206 13° North  Level Estimated
Fri 01:27:00 AM 31.8342 121.8458 13° North  Level Estimated
Fri 01:28:00 AM 31.9298 121.8710 13° North  Level Estimated
Fri 01:29:00 AM 32.0253 121.8964 13° North  Level Estimated
Fri 01:30:00 AM 32.1209 121.9217 13° North  Level Estimated
Fri 01:31:00 AM 32.2164 121.9471 13° North  Level Estimated
Fri 01:32:00 AM 32.3120 121.9726 13° North  Level Estimated
Fri 01:33:00 AM 32.4075 121.9981 13° North  Level Estimated
Fri 01:34:00 AM 32.5031 122.0237 13° North  Level Estimated
Fri 01:35:00 AM 32.5986 122.0493 13° North  Level Estimated
Fri 01:36:00 AM 32.6941 122.0750 13° North  Level Estimated
Fri 01:37:00 AM 32.7896 122.1008 13° North  Level Estimated
Fri 01:38:00 AM 32.8851 122.1266 13° North  Level Estimated
Fri 01:39:00 AM 32.9806 122.1524 13° North  Level Estimated
Fri 01:40:00 AM 33.0761 122.1783 13° North  Level Estimated
Fri 01:41:00 AM 33.1716 122.2043 13° North  Level Estimated
Fri 01:42:00 AM 33.2671 122.2303 13° North  Level Estimated
Fri 01:43:00 AM 33.3626 122.2564 13° North  Level Estimated
Fri 01:44:00 AM 33.4581 122.2825 13° North  Level Estimated
Fri 01:45:00 AM 33.5536 122.3087 13° North  Level Estimated
Fri 01:46:00 AM 33.6490 122.3350 13° North  Level Estimated
Fri 01:47:00 AM 33.7445 122.3613 13° North  Level Estimated
Fri 01:48:00 AM 33.8399 122.3877 13° North  Level Estimated
Fri 01:49:00 AM 33.9354 122.4141 13° North  Level Estimated
Fri 01:50:00 AM 34.0308 122.4406 13° North  Level Estimated
Fri 01:51:00 AM 34.1263 122.4671 13° North  Level Estimated
Fri 01:52:00 AM 34.2217 122.4937 13° North  Level Estimated
Fri 01:53:00 AM 34.3171 122.5204 13° North  Level Estimated
Fri 01:54:00 AM 34.4126 122.5471 13° North  Level Estimated
Fri 01:55:00 AM 34.5080 122.5739 13° North  Level Estimated
Fri 01:56:00 AM 34.6034 122.6008 13° North  Level Estimated
Fri 01:57:00 AM 34.6988 122.6277 13° North  Level Estimated
Fri 01:58:00 AM 34.7942 122.6547 13° North  Level Estimated
Fri 01:59:00 AM 34.8896 122.6817 13° North  Level Estimated
Fri 02:00:00 AM 34.9850 122.7088 13° North  Level Estimated
Fri 02:01:00 AM 35.0803 122.7360 13° North  Level Estimated
Fri 02:02:00 AM 35.1757 122.7632 13° North  Level Estimated
Fri 02:03:00 AM 35.2711 122.7905 13° North  Level Estimated
Fri 02:04:00 AM 35.3664 122.8178 13° North  Level Estimated
Fri 02:04:45 AM 34.7665 120.8808 339° North 420 483 33,100  Level FlightAware ADS-B
Fri 02:05:00 AM 35.4618 122.8453 13° North  Level Estimated
Fri 02:05:05 AM 34.7762 120.8761 339° North 420 483 33,100  Level FlightAware ADS-B
Fri 02:06:15 AM 34.8917 120.8198 339° North 420 483 33,100  Level FlightAware ADS-B
Fri 02:06:45 AM 34.9816 120.7759 339° North 419 482 33,100  Level FlightAware ADS-B
Fri 02:06:53 AM 34.9947 120.7695 339° North 419 482 33,100  Level FlightAware ADS-B
Fri 02:09:21 AM 35.2603 120.6410 339° North 414 476 33,100  Level FlightAware ADS-B
Fri 02:09:41 AM 35.2780 120.6324 339° North 414 476 33,100  Level FlightAware ADS-B
Fri 02:10:21 AM 35.3685 120.5885 339° North 414 476 33,100  Level FlightAware ADS-B
Fri 02:10:51 AM 35.4186 120.5640 339° North 415 478 33,100  Level FlightAware ADS-B
Fri 02:11:21 AM 35.4775 120.5355 339° North 417 480 33,100  Level FlightAware ADS-B
Fri 02:11:50 AM 35.5255 120.5119 339° North 416 479 33,100  Level FlightAware ADS-B
Fri 02:12:21 AM 35.5849 120.4830 339° North 417 480 33,100 97 Level FlightAware ADS-B
Fri 02:12:52 AM 35.6392 120.4566 339° North 417 480 33,200 98 Climbing FlightAware ADS-B
Fri 02:13:22 AM 35.6939 120.4324 345° North 422 486 33,200  Level FlightAware ADS-B
Fri 02:13:41 AM 35.7334 120.4256 358° North 432 497 33,200  Level FlightAware ADS-B
Fri 02:13:52 AM 35.7543 120.4262 North 438 504 33,200 -120 Level FlightAware ADS-B
Fri 02:14:31 AM 35.8351 120.4388 North 440 506 33,100 -86 Descending FlightAware ADS-B
Fri 02:15:02 AM 35.8939 120.4484 North 440 506 33,100  Level FlightAware ADS-B
Fri 02:15:32 AM 35.9559 120.4585 North 440 506 33,100  Level FlightAware ADS-B
Fri 02:16:02 AM 36.0173 120.4686 North 440 506 33,100  Level FlightAware ADS-B
Fri 02:16:31 AM 36.0769 120.4784 North 441 507 33,100  Level FlightAware ADS-B
Fri 02:17:01 AM 36.1380 120.4885 North 442 509 33,100  Level FlightAware ADS-B
Fri 02:17:31 AM 36.1986 120.4986 North 443 510 33,100 98 Level FlightAware ADS-B
Fri 02:18:02 AM 36.2608 120.5088 North 443 510 33,200 100 Climbing FlightAware ADS-B
Fri 02:18:31 AM 36.3221 120.5190 North 443 510 33,200 -100 Level FlightAware ADS-B
Fri 02:19:02 AM 36.3837 120.5293 North 442 509 33,100 -100 Descending FlightAware ADS-B
Fri 02:19:31 AM 36.4433 120.5391 North 441 507 33,100  Level FlightAware ADS-B
Fri 02:20:01 AM 36.5031 120.5491 North 441 507 33,100 -400 Level FlightAware ADS-B
Fri 02:20:31 AM 36.5644 120.5594 North 442 509 32,700 -900 Descending FlightAware ADS-B
Fri 02:21:01 AM 36.6276 120.5699 North 445 512 32,200 -1,000 Descending FlightAware ADS-B
Fri 02:21:31 AM 36.6829 120.5792 North 449 517 31,700 -1,017 Descending FlightAware ADS-B
Fri 02:22:00 AM 36.7486 120.5902 North 452 520 31,200 -522 Descending FlightAware ADS-B
Fri 02:22:40 AM 36.8296 120.6038 North 457 526 31,100 -83 Descending FlightAware ADS-B
Fri 02:23:12 AM 36.8975 120.6152 North 456 525 31,100  Level FlightAware ADS-B
Fri 02:23:41 AM 36.9534 120.6246 North 456 525 31,100  Level FlightAware ADS-B
Fri 02:24:11 AM 37.0233 120.6364 North 458 527 31,100  Level FlightAware ADS-B
Fri 02:24:41 AM 37.0870 120.6471 North 459 528 31,100  Level FlightAware ADS-B
Fri 02:25:11 AM 37.1494 120.6578 North 460 529 31,100  Level FlightAware ADS-B
Fri 02:25:42 AM 37.2122 120.6684 North 462 532 31,100  Level FlightAware ADS-B
Fri 02:26:11 AM 37.2769 120.6795 North 463 533 31,100  Level FlightAware ADS-B
Fri 02:26:42 AM 37.3402 120.6902 North 464 534 31,100  Level FlightAware ADS-B
Fri 02:27:12 AM 37.4056 120.7014 North 465 535 31,100  Level FlightAware ADS-B
Fri 02:27:42 AM 37.4691 120.7123 North 466 536 31,100  Level FlightAware ADS-B
Fri 02:28:12 AM 37.5323 120.7232 North 467 537 31,100  Level FlightAware ADS-B
Fri 02:28:41 AM 37.5960 120.7341 North 469 540 31,100  Level FlightAware ADS-B
Fri 02:29:11 AM 37.6618 120.7454 North 469 540 31,100  Level FlightAware ADS-B
Fri 02:29:41 AM 37.7270 120.7565 North 470 541 31,100  Level FlightAware ADS-B
Fri 02:30:11 AM 37.7910 120.7676 North 471 542 31,100 100 Level FlightAware ADS-B
Fri 02:30:41 AM 37.8565 120.7790 North 471 542 31,200  Climbing FlightAware ADS-B
Fri 02:31:16 AM 37.9315 120.7947 11° North 476 548 31,100 -86 Descending FlightAware ADS-B
Fri 02:31:51 AM 38.0069 120.8222 19° North 484 557 31,100  Level FlightAware ADS-B
Fri 02:32:21 AM 38.0700 120.8558 25° Northeast 489 563 31,100  Level FlightAware ADS-B
Fri 02:32:51 AM 38.1242 120.8964 36° Northeast 501 577 31,100  Level FlightAware ADS-B
Fri 02:33:11 AM 38.1613 120.9397 48° Northeast 512 589 31,100  Level FlightAware ADS-B
Fri 02:33:17 AM 38.1692 120.9517 51° Northeast 513 590 31,100  Level FlightAware ADS-B
Fri 02:35:39 AM 38.3376 121.3301 61° Northeast 520 598 31,100  Level FlightAware ADS-B
Fri 02:36:10 AM 38.3745 121.4155 61° Northeast 520 598 31,100  Level FlightAware ADS-B
Fri 02:36:40 AM 38.3998 121.4742 61° Northeast 520 598 31,100  Level FlightAware ADS-B
Fri 02:39:21 AM 38.5956 121.9319 61° Northeast 524 603 31,100  Level FlightAware ADS-B
Fri 02:40:51 AM 38.7068 122.1441 45° Northeast 509 586 31,100  Level FlightAware ADS-B
Fri 02:43:06 AM 38.9526 122.4239 42° Northeast 501 577 31,100  Level FlightAware ADS-B
Fri 02:43:14 AM 38.9596 122.4318 41° Northeast 499 574 31,100  Level FlightAware ADS-B
Fri 02:46:00 AM 39.2113 122.5611 22° Northeast  Level Estimated
Fri 02:47:00 AM 39.3022 122.6081 22° Northeast  Level Estimated
Fri 02:48:00 AM 39.3932 122.6552 22° Northeast  Level Estimated
Fri 02:49:00 AM 39.4840 122.7024 22° Northeast  Level Estimated
Fri 02:50:00 AM 39.5749 122.7498 22° Northeast  Level Estimated
Fri 02:51:00 AM 39.6658 122.7972 22° Northeast  Level Estimated
Fri 02:52:00 AM 39.7566 122.8448 22° Northeast  Level Estimated
Fri 02:53:00 AM 39.8474 122.8925 22° Northeast  Level Estimated
Fri 02:54:00 AM 39.9382 122.9404 22° Northeast  Level Estimated
Fri 02:55:00 AM 40.0290 122.9883 22° Northeast  Level Estimated
Fri 02:56:00 AM 40.1198 123.0364 22° Northeast  Level Estimated
Fri 02:57:00 AM 40.2105 123.0847 22° Northeast  Level Estimated
Fri 02:58:00 AM 40.3012 123.1330 22° Northeast  Level Estimated
Fri 02:59:00 AM 40.3919 123.1815 22° Northeast  Level Estimated
Fri 03:00:00 AM 40.4826 123.2301 22° Northeast  Level Estimated
Fri 03:01:00 AM 40.5733 123.2789 22° Northeast  Level Estimated
Fri 03:02:00 AM 40.6639 123.3278 22° Northeast  Level Estimated
Fri 03:03:00 AM 40.7545 123.3768 22° Northeast  Level Estimated
Fri 03:04:00 AM 40.8451 123.4259 22° Northeast  Level Estimated
Fri 03:05:00 AM 40.9357 123.4752 22° Northeast  Level Estimated
Fri 03:06:00 AM 41.0263 123.5246 22° Northeast  Level Estimated
Fri 03:07:00 AM 41.1168 123.5742 22° Northeast  Level Estimated
Fri 03:08:00 AM 41.2073 123.6238 22° Northeast  Level Estimated
Fri 03:09:00 AM 41.2978 123.6737 22° Northeast  Level Estimated
Fri 03:10:00 AM 41.3883 123.7236 23° Northeast  Level Estimated
Fri 03:11:00 AM 41.4787 123.7737 23° Northeast  Level Estimated
Fri 03:12:00 AM 41.5692 123.8240 23° Northeast  Level Estimated
Fri 03:13:00 AM 41.6596 123.8744 23° Northeast  Level Estimated
Fri 03:14:00 AM 41.7500 123.9249 23° Northeast  Level Estimated
Fri 03:15:00 AM 41.8403 123.9756 23° Northeast  Level Estimated
Fri 03:16:00 AM 41.9306 124.0264 23° Northeast  Level Estimated
Fri 03:17:00 AM 42.0210 124.0773 23° Northeast  Level Estimated
Fri 03:18:00 AM 42.1113 124.1284 23° Northeast  Level Estimated
Fri 03:19:00 AM 42.2015 124.1797 23° Northeast  Level Estimated
Fri 03:20:00 AM 42.2918 124.2311 23° Northeast  Level Estimated
Fri 03:21:00 AM 42.3820 124.2826 23° Northeast  Level Estimated
Fri 03:22:00 AM 42.4722 124.3343 23° Northeast  Level Estimated
Fri 03:23:00 AM 42.5624 124.3861 23° Northeast  Level Estimated
Fri 03:24:00 AM 42.6525 124.4381 23° Northeast  Level Estimated
Fri 03:25:00 AM 42.7427 124.4903 23° Northeast  Level Estimated
Fri 03:26:00 AM 42.8328 124.5426 23° Northeast  Level Estimated
Fri 03:27:00 AM 42.9229 124.5950 23° Northeast  Level Estimated
Fri 03:28:00 AM 43.0129 124.6476 23° Northeast  Level Estimated
Fri 03:29:00 AM 43.1030 124.7003 23° Northeast  Level Estimated
Fri 03:30:00 AM 43.1930 124.7533 23° Northeast  Level Estimated
Fri 03:31:00 AM 43.2830 124.8063 23° Northeast  Level Estimated
Fri 03:32:00 AM 43.3729 124.8595 23° Northeast  Level Estimated
Fri 03:33:00 AM 43.4629 124.9129 23° Northeast  Level Estimated
Fri 03:34:00 AM 43.5528 124.9665 23° Northeast  Level Estimated
Fri 03:35:00 AM 43.6427 125.0202 23° Northeast  Level Estimated
Fri 03:36:00 AM 43.7325 125.0740 23° Northeast  Level Estimated
Fri 03:37:00 AM 43.8224 125.1280 23° Northeast  Level Estimated
Fri 03:38:00 AM 43.9122 125.1822 23° Northeast  Level Estimated
Fri 03:39:00 AM 44.0019 125.2366 24° Northeast  Level Estimated
Fri 03:40:00 AM 44.0917 125.2911 24° Northeast  Level Estimated
Fri 03:41:00 AM 44.1814 125.3458 24° Northeast  Level Estimated
Fri 03:42:00 AM 44.2712 125.4006 24° Northeast  Level Estimated
Fri 03:43:00 AM 44.3608 125.4556 24° Northeast  Level Estimated
Fri 03:44:00 AM 44.4505 125.5108 24° Northeast  Level Estimated
Fri 03:45:00 AM 44.5401 125.5661 24° Northeast  Level Estimated
Fri 03:46:00 AM 44.6297 125.6217 24° Northeast  Level Estimated
Fri 03:47:00 AM 44.7193 125.6774 24° Northeast  Level Estimated
Fri 03:48:00 AM 44.8088 125.7332 24° Northeast  Level Estimated
Fri 03:49:00 AM 44.8984 125.7893 24° Northeast  Level Estimated
Fri 03:50:00 AM 44.9879 125.8455 24° Northeast  Level Estimated
Fri 03:51:00 AM 45.0773 125.9019 24° Northeast  Level Estimated
Fri 03:52:00 AM 45.1668 125.9584 24° Northeast  Level Estimated
Fri 03:53:00 AM 45.2562 126.0152 24° Northeast  Level Estimated

Login

Don't have an account? Register now (free) for customized features, flight alerts, and more!